sensor_id;sensor_type;location;lat;lon;timestamp;temperature;humidity
4556;DHT22;2290;48.674;9.018;2023-12-20T00:02:12;5.90;99.90
4556;DHT22;2290;48.674;9.018;2023-12-20T00:04:38;6.00;99.90
4556;DHT22;2290;48.674;9.018;2023-12-20T00:07:03;5.90;99.90
4556;DHT22;2290;48.674;9.018;2023-12-20T00:09:29;5.90;99.90
4556;DHT22;2290;48.674;9.018;2023-12-20T00:11:54;5.90;99.90
4556;DHT22;2290;48.674;9.018;2023-12-20T00:14:20;6.00;99.90
4556;DHT22;2290;48.674;9.018;2023-12-20T00:16:46;6.00;99.90
4556;DHT22;2290;48.674;9.018;2023-12-20T00:19:12;6.00;99.90
4556;DHT22;2290;48.674;9.018;2023-12-20T00:21:37;6.00;99.90
4556;DHT22;2290;48.674;9.018;2023-12-20T00:24:03;6.00;99.90
4556;DHT22;2290;48.674;9.018;2023-12-20T00:26:29;6.10;99.90
4556;DHT22;2290;48.674;9.018;2023-12-20T00:28:54;6.10;99.90
4556;DHT22;2290;48.674;9.018;2023-12-20T00:31:20;6.10;99.90
4556;DHT22;2290;48.674;9.018;2023-12-20T00:33:45;6.00;99.90
4556;DHT22;2290;48.674;9.018;2023-12-20T00:36:12;6.00;99.90
4556;DHT22;2290;48.674;9.018;2023-12-20T00:38:38;6.00;99.90
4556;DHT22;2290;48.674;9.018;2023-12-20T00:41:03;5.90;99.90
4556;DHT22;2290;48.674;9.018;2023-12-20T00:43:29;5.90;99.90
4556;DHT22;2290;48.674;9.018;2023-12-20T00:45:54;5.90;99.90
4556;DHT22;2290;48.674;9.018;2023-12-20T00:48:21;5.90;99.90
4556;DHT22;2290;48.674;9.018;2023-12-20T00:50:46;6.00;99.90
4556;DHT22;2290;48.674;9.018;2023-12-20T00:53:12;6.00;99.90
4556;DHT22;2290;48.674;9.018;2023-12-20T00:55:37;6.00;99.90
4556;DHT22;2290;48.674;9.018;2023-12-20T00:58:03;5.90;99.90
4556;DHT22;2290;48.674;9.018;2023-12-20T01:00:29;5.90;99.90
4556;DHT22;2290;48.674;9.018;2023-12-20T01:02:54;6.00;99.90
4556;DHT22;2290;48.674;9.018;2023-12-20T01:05:20;6.00;99.90
4556;DHT22;2290;48.674;9.018;2023-12-20T01:07:48;5.90;99.90
4556;DHT22;2290;48.674;9.018;2023-12-20T01:10:14;6.00;99.90
4556;DHT22;2290;48.674;9.018;2023-12-20T01:12:40;5.90;99.90
4556;DHT22;2290;48.674;9.018;2023-12-20T01:15:06;5.90;99.90
4556;DHT22;2290;48.674;9.018;2023-12-20T01:17:31;5.90;99.90
4556;DHT22;2290;48.674;9.018;2023-12-20T01:19:57;5.90;99.90
4556;DHT22;2290;48.674;9.018;2023-12-20T01:22:23;5.80;99.90
4556;DHT22;2290;48.674;9.018;2023-12-20T01:24:50;5.80;99.90
4556;DHT22;2290;48.674;9.018;2023-12-20T01:27:16;5.80;99.90
4556;DHT22;2290;48.674;9.018;2023-12-20T01:29:42;5.80;99.90
4556;DHT22;2290;48.674;9.018;2023-12-20T01:32:07;5.90;99.90
4556;DHT22;2290;48.674;9.018;2023-12-20T01:34:33;5.90;99.90
4556;DHT22;2290;48.674;9.018;2023-12-20T01:36:58;5.80;99.90
4556;DHT22;2290;48.674;9.018;2023-12-20T01:39:24;5.80;99.90
4556;DHT22;2290;48.674;9.018;2023-12-20T01:41:49;5.80;99.90
4556;DHT22;2290;48.674;9.018;2023-12-20T01:44:15;5.80;99.90
4556;DHT22;2290;48.674;9.018;2023-12-20T01:46:40;5.80;99.90
4556;DHT22;2290;48.674;9.018;2023-12-20T01:49:06;5.80;99.90
4556;DHT22;2290;48.674;9.018;2023-12-20T01:51:33;5.90;99.90
4556;DHT22;2290;48.674;9.018;2023-12-20T01:53:59;5.90;99.90
4556;DHT22;2290;48.674;9.018;2023-12-20T01:56:29;5.80;99.90
4556;DHT22;2290;48.674;9.018;2023-12-20T01:58:56;5.80;99.90
4556;DHT22;2290;48.674;9.018;2023-12-20T02:01:22;5.90;99.90
4556;DHT22;2290;48.674;9.018;2023-12-20T02:03:47;5.80;99.90
4556;DHT22;2290;48.674;9.018;2023-12-20T02:06:13;5.90;99.90
4556;DHT22;2290;48.674;9.018;2023-12-20T02:08:39;5.90;99.90
4556;DHT22;2290;48.674;9.018;2023-12-20T02:11:05;5.80;99.90
4556;DHT22;2290;48.674;9.018;2023-12-20T02:13:31;5.80;99.90
4556;DHT22;2290;48.674;9.018;2023-12-20T02:15:56;5.80;99.90
4556;DHT22;2290;48.674;9.018;2023-12-20T02:18:24;5.90;99.90
4556;DHT22;2290;48.674;9.018;2023-12-20T02:20:49;5.90;99.90
4556;DHT22;2290;48.674;9.018;2023-12-20T02:23:15;5.90;99.90
4556;DHT22;2290;48.674;9.018;2023-12-20T02:25:40;5.90;99.90
4556;DHT22;2290;48.674;9.018;2023-12-20T02:28:06;5.90;99.90
4556;DHT22;2290;48.674;9.018;2023-12-20T02:30:32;5.90;99.90
4556;DHT22;2290;48.674;9.018;2023-12-20T02:32:59;5.90;99.90
4556;DHT22;2290;48.674;9.018;2023-12-20T02:35:25;5.90;99.90
4556;DHT22;2290;48.674;9.018;2023-12-20T02:37:50;5.90;99.90
4556;DHT22;2290;48.674;9.018;2023-12-20T02:40:17;5.90;99.90
4556;DHT22;2290;48.674;9.018;2023-12-20T02:42:43;5.90;99.90
4556;DHT22;2290;48.674;9.018;2023-12-20T02:45:08;5.90;99.90
4556;DHT22;2290;48.674;9.018;2023-12-20T02:47:34;5.90;99.90
4556;DHT22;2290;48.674;9.018;2023-12-20T02:50:00;5.80;99.90
4556;DHT22;2290;48.674;9.018;2023-12-20T02:52:27;5.80;99.90
4556;DHT22;2290;48.674;9.018;2023-12-20T02:54:52;5.80;99.90
4556;DHT22;2290;48.674;9.018;2023-12-20T02:57:18;5.80;99.90
4556;DHT22;2290;48.674;9.018;2023-12-20T02:59:43;5.90;99.90
4556;DHT22;2290;48.674;9.018;2023-12-20T03:02:09;5.90;99.90
4556;DHT22;2290;48.674;9.018;2023-12-20T03:04:34;5.90;99.90
4556;DHT22;2290;48.674;9.018;2023-12-20T03:07:00;5.90;99.90
4556;DHT22;2290;48.674;9.018;2023-12-20T03:09:25;5.90;99.90
4556;DHT22;2290;48.674;9.018;2023-12-20T03:11:51;5.90;99.90
4556;DHT22;2290;48.674;9.018;2023-12-20T03:14:17;6.00;99.90
4556;DHT22;2290;48.674;9.018;2023-12-20T03:16:49;5.90;99.90
4556;DHT22;2290;48.674;9.018;2023-12-20T03:19:16;5.90;99.90
4556;DHT22;2290;48.674;9.018;2023-12-20T03:21:41;5.90;99.90
4556;DHT22;2290;48.674;9.018;2023-12-20T03:24:07;5.80;99.90
4556;DHT22;2290;48.674;9.018;2023-12-20T03:26:33;5.90;99.90
4556;DHT22;2290;48.674;9.018;2023-12-20T03:28:58;5.90;99.90
4556;DHT22;2290;48.674;9.018;2023-12-20T03:31:24;5.90;99.90
4556;DHT22;2290;48.674;9.018;2023-12-20T03:33:49;5.90;99.90
4556;DHT22;2290;48.674;9.018;2023-12-20T03:36:16;5.90;99.90
4556;DHT22;2290;48.674;9.018;2023-12-20T03:38:42;5.90;99.90
4556;DHT22;2290;48.674;9.018;2023-12-20T03:41:07;5.80;99.90
4556;DHT22;2290;48.674;9.018;2023-12-20T03:43:33;5.80;99.90
4556;DHT22;2290;48.674;9.018;2023-12-20T03:45:58;5.90;99.90
4556;DHT22;2290;48.674;9.018;2023-12-20T03:48:25;5.90;99.90
4556;DHT22;2290;48.674;9.018;2023-12-20T03:50:50;5.90;99.90
4556;DHT22;2290;48.674;9.018;2023-12-20T03:53:16;5.80;99.90
4556;DHT22;2290;48.674;9.018;2023-12-20T03:55:42;5.80;99.90
4556;DHT22;2290;48.674;9.018;2023-12-20T03:58:07;5.80;99.90
4556;DHT22;2290;48.674;9.018;2023-12-20T04:00:33;5.70;99.90
4556;DHT22;2290;48.674;9.018;2023-12-20T04:02:58;5.70;99.90
4556;DHT22;2290;48.674;9.018;2023-12-20T04:05:24;5.70;99.90
4556;DHT22;2290;48.674;9.018;2023-12-20T04:07:49;5.70;99.90
4556;DHT22;2290;48.674;9.018;2023-12-20T04:10:15;5.60;99.90
4556;DHT22;2290;48.674;9.018;2023-12-20T04:12:41;5.60;99.90
4556;DHT22;2290;48.674;9.018;2023-12-20T04:15:08;5.60;99.90
4556;DHT22;2290;48.674;9.018;2023-12-20T04:17:35;5.60;99.90
4556;DHT22;2290;48.674;9.018;2023-12-20T04:20:02;5.50;99.90
4556;DHT22;2290;48.674;9.018;2023-12-20T04:22:27;5.60;99.90
4556;DHT22;2290;48.674;9.018;2023-12-20T04:24:53;5.50;99.90
4556;DHT22;2290;48.674;9.018;2023-12-20T04:27:18;5.50;99.90
4556;DHT22;2290;48.674;9.018;2023-12-20T04:29:44;5.50;99.90
4556;DHT22;2290;48.674;9.018;2023-12-20T04:32:09;5.40;99.90
4556;DHT22;2290;48.674;9.018;2023-12-20T04:34:36;5.50;99.90
4556;DHT22;2290;48.674;9.018;2023-12-20T04:37:01;5.40;99.90
4556;DHT22;2290;48.674;9.018;2023-12-20T04:39:27;5.40;99.90
4556;DHT22;2290;48.674;9.018;2023-12-20T04:41:52;5.40;99.90
4556;DHT22;2290;48.674;9.018;2023-12-20T04:44:18;5.40;99.90
4556;DHT22;2290;48.674;9.018;2023-12-20T04:46:44;5.50;99.90
4556;DHT22;2290;48.674;9.018;2023-12-20T04:49:09;5.40;99.90
4556;DHT22;2290;48.674;9.018;2023-12-20T04:51:35;5.50;99.90
4556;DHT22;2290;48.674;9.018;2023-12-20T04:54:01;5.40;99.90
4556;DHT22;2290;48.674;9.018;2023-12-20T04:56:27;5.40;99.90
4556;DHT22;2290;48.674;9.018;2023-12-20T04:58:53;5.40;99.90
4556;DHT22;2290;48.674;9.018;2023-12-20T05:01:18;5.40;99.90
4556;DHT22;2290;48.674;9.018;2023-12-20T05:03:44;5.40;99.90
4556;DHT22;2290;48.674;9.018;2023-12-20T05:06:10;5.40;99.90
4556;DHT22;2290;48.674;9.018;2023-12-20T05:08:36;5.40;99.90
4556;DHT22;2290;48.674;9.018;2023-12-20T05:11:02;5.50;99.90
4556;DHT22;2290;48.674;9.018;2023-12-20T05:13:27;5.50;99.90
4556;DHT22;2290;48.674;9.018;2023-12-20T05:15:53;5.50;99.90
4556;DHT22;2290;48.674;9.018;2023-12-20T05:18:21;5.50;99.90
4556;DHT22;2290;48.674;9.018;2023-12-20T05:20:47;5.50;99.90
4556;DHT22;2290;48.674;9.018;2023-12-20T05:23:14;5.60;99.90
4556;DHT22;2290;48.674;9.018;2023-12-20T05:25:40;5.50;99.90
4556;DHT22;2290;48.674;9.018;2023-12-20T05:28:06;5.50;99.90
4556;DHT22;2290;48.674;9.018;2023-12-20T05:30:31;5.50;99.90
4556;DHT22;2290;48.674;9.018;2023-12-20T05:32:57;5.50;99.90
4556;DHT22;2290;48.674;9.018;2023-12-20T05:35:22;5.60;99.90
4556;DHT22;2290;48.674;9.018;2023-12-20T05:37:49;5.60;99.90
4556;DHT22;2290;48.674;9.018;2023-12-20T05:40:15;5.60;99.90
4556;DHT22;2290;48.674;9.018;2023-12-20T05:42:40;5.60;99.90
4556;DHT22;2290;48.674;9.018;2023-12-20T05:45:06;5.60;99.90
4556;DHT22;2290;48.674;9.018;2023-12-20T05:47:32;5.60;99.90
4556;DHT22;2290;48.674;9.018;2023-12-20T05:49:59;5.70;99.90
4556;DHT22;2290;48.674;9.018;2023-12-20T05:52:24;5.60;99.90
4556;DHT22;2290;48.674;9.018;2023-12-20T05:54:50;5.60;99.90
4556;DHT22;2290;48.674;9.018;2023-12-20T05:57:16;5.60;99.90
4556;DHT22;2290;48.674;9.018;2023-12-20T05:59:41;5.60;99.90
4556;DHT22;2290;48.674;9.018;2023-12-20T06:02:07;5.50;99.90
4556;DHT22;2290;48.674;9.018;2023-12-20T06:04:32;5.60;99.90
4556;DHT22;2290;48.674;9.018;2023-12-20T06:06:58;5.60;99.90
4556;DHT22;2290;48.674;9.018;2023-12-20T06:09:25;5.60;99.90
4556;DHT22;2290;48.674;9.018;2023-12-20T06:11:51;5.60;99.90
4556;DHT22;2290;48.674;9.018;2023-12-20T06:14:17;5.60;99.90
4556;DHT22;2290;48.674;9.018;2023-12-20T06:16:42;5.60;99.90
4556;DHT22;2290;48.674;9.018;2023-12-20T06:19:08;5.50;99.90
4556;DHT22;2290;48.674;9.018;2023-12-20T06:21:34;5.50;99.90
4556;DHT22;2290;48.674;9.018;2023-12-20T06:23:59;5.50;99.90
4556;DHT22;2290;48.674;9.018;2023-12-20T06:26:25;5.50;99.90
4556;DHT22;2290;48.674;9.018;2023-12-20T06:28:51;5.40;99.90
4556;DHT22;2290;48.674;9.018;2023-12-20T06:31:18;5.50;99.90
4556;DHT22;2290;48.674;9.018;2023-12-20T06:33:44;5.40;99.90
4556;DHT22;2290;48.674;9.018;2023-12-20T06:36:13;5.40;99.90
4556;DHT22;2290;48.674;9.018;2023-12-20T06:38:39;5.40;99.90
4556;DHT22;2290;48.674;9.018;2023-12-20T06:41:06;5.40;99.90
4556;DHT22;2290;48.674;9.018;2023-12-20T06:43:34;5.30;99.90
4556;DHT22;2290;48.674;9.018;2023-12-20T06:46:00;5.30;99.90
4556;DHT22;2290;48.674;9.018;2023-12-20T06:48:26;5.40;99.90
4556;DHT22;2290;48.674;9.018;2023-12-20T06:50:52;5.40;99.90
4556;DHT22;2290;48.674;9.018;2023-12-20T06:53:18;5.40;99.90
4556;DHT22;2290;48.674;9.018;2023-12-20T06:55:43;5.40;99.90
4556;DHT22;2290;48.674;9.018;2023-12-20T06:58:10;5.50;99.90
4556;DHT22;2290;48.674;9.018;2023-12-20T07:00:35;5.50;99.90
4556;DHT22;2290;48.674;9.018;2023-12-20T07:03:02;5.50;99.90
4556;DHT22;2290;48.674;9.018;2023-12-20T07:05:29;5.50;99.90
4556;DHT22;2290;48.674;9.018;2023-12-20T07:07:54;5.60;99.90
4556;DHT22;2290;48.674;9.018;2023-12-20T07:10:20;5.50;99.90
4556;DHT22;2290;48.674;9.018;2023-12-20T07:12:45;5.50;99.90
4556;DHT22;2290;48.674;9.018;2023-12-20T07:15:11;5.50;99.90
4556;DHT22;2290;48.674;9.018;2023-12-20T07:17:37;5.50;99.90
4556;DHT22;2290;48.674;9.018;2023-12-20T07:20:02;5.50;99.90
4556;DHT22;2290;48.674;9.018;2023-12-20T07:22:33;5.40;99.90
4556;DHT22;2290;48.674;9.018;2023-12-20T07:24:59;5.40;99.90
4556;DHT22;2290;48.674;9.018;2023-12-20T07:27:25;5.40;99.90
4556;DHT22;2290;48.674;9.018;2023-12-20T07:29:52;5.40;99.90
4556;DHT22;2290;48.674;9.018;2023-12-20T07:32:18;5.40;99.90
4556;DHT22;2290;48.674;9.018;2023-12-20T07:34:44;5.30;99.90
4556;DHT22;2290;48.674;9.018;2023-12-20T07:37:10;5.40;99.90
4556;DHT22;2290;48.674;9.018;2023-12-20T07:39:40;5.30;99.90
4556;DHT22;2290;48.674;9.018;2023-12-20T07:42:06;5.30;99.90
4556;DHT22;2290;48.674;9.018;2023-12-20T07:44:33;5.30;99.90
4556;DHT22;2290;48.674;9.018;2023-12-20T07:46:59;5.30;99.90
4556;DHT22;2290;48.674;9.018;2023-12-20T07:49:24;5.30;99.90
4556;DHT22;2290;48.674;9.018;2023-12-20T07:51:51;5.40;99.90
4556;DHT22;2290;48.674;9.018;2023-12-20T07:54:17;5.40;99.90
4556;DHT22;2290;48.674;9.018;2023-12-20T07:56:44;5.40;99.90
4556;DHT22;2290;48.674;9.018;2023-12-20T07:59:09;5.40;99.90
4556;DHT22;2290;48.674;9.018;2023-12-20T08:01:35;5.40;99.90
4556;DHT22;2290;48.674;9.018;2023-12-20T08:04:01;5.40;99.90
4556;DHT22;2290;48.674;9.018;2023-12-20T08:06:26;5.40;99.90
4556;DHT22;2290;48.674;9.018;2023-12-20T08:08:52;5.40;99.90
4556;DHT22;2290;48.674;9.018;2023-12-20T08:11:17;5.30;99.90
4556;DHT22;2290;48.674;9.018;2023-12-20T08:13:44;5.30;99.90
4556;DHT22;2290;48.674;9.018;2023-12-20T08:16:10;5.30;99.90
4556;DHT22;2290;48.674;9.018;2023-12-20T08:18:38;5.30;99.90
4556;DHT22;2290;48.674;9.018;2023-12-20T08:21:06;5.40;99.90
4556;DHT22;2290;48.674;9.018;2023-12-20T08:23:33;5.40;99.90
4556;DHT22;2290;48.674;9.018;2023-12-20T08:26:06;5.40;99.90
4556;DHT22;2290;48.674;9.018;2023-12-20T08:28:32;5.40;99.90
4556;DHT22;2290;48.674;9.018;2023-12-20T08:30:59;5.40;99.90
4556;DHT22;2290;48.674;9.018;2023-12-20T08:33:25;5.50;99.90
4556;DHT22;2290;48.674;9.018;2023-12-20T08:35:50;5.50;99.90
4556;DHT22;2290;48.674;9.018;2023-12-20T08:38:16;5.50;99.90
4556;DHT22;2290;48.674;9.018;2023-12-20T08:40:43;5.40;99.90
4556;DHT22;2290;48.674;9.018;2023-12-20T08:43:08;5.40;99.90
4556;DHT22;2290;48.674;9.018;2023-12-20T08:45:34;5.40;99.90
4556;DHT22;2290;48.674;9.018;2023-12-20T08:47:59;5.40;99.90
4556;DHT22;2290;48.674;9.018;2023-12-20T08:50:25;5.30;99.90
4556;DHT22;2290;48.674;9.018;2023-12-20T08:52:51;5.20;99.90
4556;DHT22;2290;48.674;9.018;2023-12-20T08:55:17;5.10;99.90
4556;DHT22;2290;48.674;9.018;2023-12-20T08:57:43;5.00;99.90
4556;DHT22;2290;48.674;9.018;2023-12-20T09:00:09;5.00;99.90
4556;DHT22;2290;48.674;9.018;2023-12-20T09:02:37;5.10;99.90
4556;DHT22;2290;48.674;9.018;2023-12-20T09:05:03;5.00;99.90
4556;DHT22;2290;48.674;9.018;2023-12-20T09:07:30;4.90;99.90
4556;DHT22;2290;48.674;9.018;2023-12-20T09:09:57;5.00;99.90
4556;DHT22;2290;48.674;9.018;2023-12-20T09:12:23;5.00;99.90
4556;DHT22;2290;48.674;9.018;2023-12-20T09:14:50;5.00;99.90
4556;DHT22;2290;48.674;9.018;2023-12-20T09:17:16;5.10;99.90
4556;DHT22;2290;48.674;9.018;2023-12-20T09:19:43;5.10;99.90
4556;DHT22;2290;48.674;9.018;2023-12-20T09:22:12;5.10;99.90
4556;DHT22;2290;48.674;9.018;2023-12-20T09:24:38;5.10;99.90
4556;DHT22;2290;48.674;9.018;2023-12-20T09:27:06;5.00;99.90
4556;DHT22;2290;48.674;9.018;2023-12-20T09:29:32;5.00;99.90
4556;DHT22;2290;48.674;9.018;2023-12-20T09:31:57;5.00;99.90
4556;DHT22;2290;48.674;9.018;2023-12-20T09:34:23;5.00;99.90
4556;DHT22;2290;48.674;9.018;2023-12-20T09:36:49;5.00;99.90
4556;DHT22;2290;48.674;9.018;2023-12-20T09:39:15;5.10;99.90
4556;DHT22;2290;48.674;9.018;2023-12-20T09:41:45;5.20;99.90
4556;DHT22;2290;48.674;9.018;2023-12-20T09:44:18;5.20;99.90
4556;DHT22;2290;48.674;9.018;2023-12-20T09:46:45;5.30;99.90
4556;DHT22;2290;48.674;9.018;2023-12-20T09:49:17;5.30;99.90
4556;DHT22;2290;48.674;9.018;2023-12-20T09:51:46;5.40;99.90
4556;DHT22;2290;48.674;9.018;2023-12-20T09:54:15;5.50;99.90
4556;DHT22;2290;48.674;9.018;2023-12-20T09:56:42;5.50;99.90
4556;DHT22;2290;48.674;9.018;2023-12-20T09:59:09;5.70;99.90
4556;DHT22;2290;48.674;9.018;2023-12-20T10:01:39;6.00;99.90
4556;DHT22;2290;48.674;9.018;2023-12-20T10:04:06;6.00;99.90
4556;DHT22;2290;48.674;9.018;2023-12-20T10:06:41;6.20;99.90
4556;DHT22;2290;48.674;9.018;2023-12-20T10:09:07;6.20;99.90
4556;DHT22;2290;48.674;9.018;2023-12-20T10:11:40;6.30;99.90
4556;DHT22;2290;48.674;9.018;2023-12-20T10:14:06;6.40;99.90
4556;DHT22;2290;48.674;9.018;2023-12-20T10:16:33;6.60;99.90
4556;DHT22;2290;48.674;9.018;2023-12-20T10:18:59;6.50;99.90
4556;DHT22;2290;48.674;9.018;2023-12-20T10:21:26;6.40;99.90
4556;DHT22;2290;48.674;9.018;2023-12-20T10:23:55;6.20;99.90
4556;DHT22;2290;48.674;9.018;2023-12-20T10:26:22;5.90;99.90
4556;DHT22;2290;48.674;9.018;2023-12-20T10:28:55;5.80;99.90
4556;DHT22;2290;48.674;9.018;2023-12-20T10:31:28;5.80;99.90
4556;DHT22;2290;48.674;9.018;2023-12-20T10:33:58;5.80;99.90
4556;DHT22;2290;48.674;9.018;2023-12-20T10:36:31;5.80;99.90
4556;DHT22;2290;48.674;9.018;2023-12-20T10:39:06;5.80;99.90
4556;DHT22;2290;48.674;9.018;2023-12-20T10:41:33;5.70;99.90
4556;DHT22;2290;48.674;9.018;2023-12-20T10:44:03;5.70;99.90
4556;DHT22;2290;48.674;9.018;2023-12-20T10:46:34;5.70;99.90
4556;DHT22;2290;48.674;9.018;2023-12-20T10:49:02;5.70;99.90
4556;DHT22;2290;48.674;9.018;2023-12-20T10:51:31;5.70;99.90
4556;DHT22;2290;48.674;9.018;2023-12-20T10:53:57;5.80;99.90
4556;DHT22;2290;48.674;9.018;2023-12-20T10:56:23;5.70;99.90
4556;DHT22;2290;48.674;9.018;2023-12-20T10:58:51;5.60;99.90
4556;DHT22;2290;48.674;9.018;2023-12-20T11:01:19;5.60;99.90
4556;DHT22;2290;48.674;9.018;2023-12-20T11:03:50;5.70;99.90
4556;DHT22;2290;48.674;9.018;2023-12-20T11:09:24;5.70;99.90
4556;DHT22;2290;48.674;9.018;2023-12-20T11:12:15;5.60;99.90
4556;DHT22;2290;48.674;9.018;2023-12-20T11:15:02;5.70;99.90
4556;DHT22;2290;48.674;9.018;2023-12-20T11:17:29;5.70;99.90
4556;DHT22;2290;48.674;9.018;2023-12-20T11:22:27;5.70;99.90
4556;DHT22;2290;48.674;9.018;2023-12-20T11:24:59;5.70;99.90
4556;DHT22;2290;48.674;9.018;2023-12-20T11:27:27;5.70;99.90
4556;DHT22;2290;48.674;9.018;2023-12-20T11:29:55;5.80;99.90
4556;DHT22;2290;48.674;9.018;2023-12-20T11:32:27;5.70;99.90
4556;DHT22;2290;48.674;9.018;2023-12-20T11:34:59;5.60;99.90
4556;DHT22;2290;48.674;9.018;2023-12-20T11:37:35;5.60;99.90
4556;DHT22;2290;48.674;9.018;2023-12-20T11:40:04;5.50;99.90
4556;DHT22;2290;48.674;9.018;2023-12-20T11:42:38;5.50;99.90
4556;DHT22;2290;48.674;9.018;2023-12-20T11:45:05;5.50;99.90
4556;DHT22;2290;48.674;9.018;2023-12-20T11:47:31;5.50;99.90
4556;DHT22;2290;48.674;9.018;2023-12-20T11:49:57;5.40;99.90
4556;DHT22;2290;48.674;9.018;2023-12-20T11:52:23;5.40;99.90
4556;DHT22;2290;48.674;9.018;2023-12-20T11:54:48;5.30;99.90
4556;DHT22;2290;48.674;9.018;2023-12-20T11:57:14;5.30;99.90
4556;DHT22;2290;48.674;9.018;2023-12-20T11:59:39;5.30;99.90
4556;DHT22;2290;48.674;9.018;2023-12-20T12:02:05;5.30;99.90
4556;DHT22;2290;48.674;9.018;2023-12-20T12:04:31;5.40;99.90
4556;DHT22;2290;48.674;9.018;2023-12-20T12:06:57;5.40;99.90
4556;DHT22;2290;48.674;9.018;2023-12-20T12:09:22;5.30;99.90
4556;DHT22;2290;48.674;9.018;2023-12-20T12:11:48;5.40;99.90
4556;DHT22;2290;48.674;9.018;2023-12-20T12:14:13;5.30;99.90
4556;DHT22;2290;48.674;9.018;2023-12-20T12:16:41;5.30;99.90
4556;DHT22;2290;48.674;9.018;2023-12-20T12:19:07;5.30;99.90
4556;DHT22;2290;48.674;9.018;2023-12-20T12:21:33;5.40;99.90
4556;DHT22;2290;48.674;9.018;2023-12-20T12:24:08;5.50;99.90
4556;DHT22;2290;48.674;9.018;2023-12-20T12:26:34;5.50;99.90
4556;DHT22;2290;48.674;9.018;2023-12-20T12:29:00;5.50;99.90
4556;DHT22;2290;48.674;9.018;2023-12-20T12:31:27;5.50;99.90
4556;DHT22;2290;48.674;9.018;2023-12-20T12:33:54;5.60;99.90
4556;DHT22;2290;48.674;9.018;2023-12-20T12:36:20;5.60;99.90
4556;DHT22;2290;48.674;9.018;2023-12-20T12:38:47;5.60;99.90
4556;DHT22;2290;48.674;9.018;2023-12-20T12:41:13;5.70;99.90
4556;DHT22;2290;48.674;9.018;2023-12-20T12:43:41;5.70;99.90
4556;DHT22;2290;48.674;9.018;2023-12-20T12:46:07;5.80;99.90
4556;DHT22;2290;48.674;9.018;2023-12-20T12:48:35;5.80;99.90
4556;DHT22;2290;48.674;9.018;2023-12-20T12:51:00;5.70;99.90
4556;DHT22;2290;48.674;9.018;2023-12-20T12:53:26;5.70;99.90
4556;DHT22;2290;48.674;9.018;2023-12-20T12:55:54;5.90;99.90
4556;DHT22;2290;48.674;9.018;2023-12-20T12:58:22;6.00;99.90
4556;DHT22;2290;48.674;9.018;2023-12-20T13:00:48;6.00;99.90
4556;DHT22;2290;48.674;9.018;2023-12-20T13:03:14;6.00;99.90
4556;DHT22;2290;48.674;9.018;2023-12-20T13:05:41;6.00;99.90
4556;DHT22;2290;48.674;9.018;2023-12-20T13:08:07;5.90;99.90
4556;DHT22;2290;48.674;9.018;2023-12-20T13:10:34;6.00;99.90
4556;DHT22;2290;48.674;9.018;2023-12-20T13:13:00;5.90;99.90
4556;DHT22;2290;48.674;9.018;2023-12-20T13:15:27;5.90;99.90
4556;DHT22;2290;48.674;9.018;2023-12-20T13:17:53;5.90;99.90
4556;DHT22;2290;48.674;9.018;2023-12-20T13:20:20;5.80;99.90
4556;DHT22;2290;48.674;9.018;2023-12-20T13:22:46;5.70;99.90
4556;DHT22;2290;48.674;9.018;2023-12-20T13:25:12;5.80;99.90
4556;DHT22;2290;48.674;9.018;2023-12-20T13:27:37;5.90;99.90
4556;DHT22;2290;48.674;9.018;2023-12-20T13:30:04;6.00;99.90
4556;DHT22;2290;48.674;9.018;2023-12-20T13:32:29;6.10;99.90
4556;DHT22;2290;48.674;9.018;2023-12-20T13:34:56;6.20;99.90
4556;DHT22;2290;48.674;9.018;2023-12-20T13:37:24;6.10;99.90
4556;DHT22;2290;48.674;9.018;2023-12-20T13:39:49;6.10;99.90
4556;DHT22;2290;48.674;9.018;2023-12-20T13:42:15;6.20;99.90
4556;DHT22;2290;48.674;9.018;2023-12-20T13:44:41;6.40;99.90
4556;DHT22;2290;48.674;9.018;2023-12-20T13:47:06;6.40;99.90
4556;DHT22;2290;48.674;9.018;2023-12-20T13:49:32;6.40;99.90
4556;DHT22;2290;48.674;9.018;2023-12-20T13:51:57;6.30;99.90
4556;DHT22;2290;48.674;9.018;2023-12-20T13:54:26;6.20;99.90
4556;DHT22;2290;48.674;9.018;2023-12-20T13:56:52;6.10;99.90
4556;DHT22;2290;48.674;9.018;2023-12-20T13:59:18;5.90;99.90
4556;DHT22;2290;48.674;9.018;2023-12-20T14:01:43;5.80;99.90
4556;DHT22;2290;48.674;9.018;2023-12-20T14:04:09;5.80;99.90
4556;DHT22;2290;48.674;9.018;2023-12-20T14:06:34;5.70;99.90
4556;DHT22;2290;48.674;9.018;2023-12-20T14:09:00;5.70;99.90
4556;DHT22;2290;48.674;9.018;2023-12-20T14:11:26;5.60;99.90
4556;DHT22;2290;48.674;9.018;2023-12-20T14:13:53;5.60;99.90
4556;DHT22;2290;48.674;9.018;2023-12-20T14:16:24;5.60;99.90
4556;DHT22;2290;48.674;9.018;2023-12-20T14:18:51;5.60;99.90
4556;DHT22;2290;48.674;9.018;2023-12-20T14:21:22;5.70;99.90
4556;DHT22;2290;48.674;9.018;2023-12-20T14:23:49;5.60;99.90
4556;DHT22;2290;48.674;9.018;2023-12-20T14:26:14;5.50;99.90
4556;DHT22;2290;48.674;9.018;2023-12-20T14:28:41;5.40;99.90
4556;DHT22;2290;48.674;9.018;2023-12-20T14:31:07;5.50;99.90
4556;DHT22;2290;48.674;9.018;2023-12-20T14:33:34;5.50;99.90
4556;DHT22;2290;48.674;9.018;2023-12-20T14:36:00;5.40;99.90
4556;DHT22;2290;48.674;9.018;2023-12-20T14:38:26;5.40;99.90
4556;DHT22;2290;48.674;9.018;2023-12-20T14:40:53;5.30;99.90
4556;DHT22;2290;48.674;9.018;2023-12-20T14:43:20;5.40;99.90
4556;DHT22;2290;48.674;9.018;2023-12-20T14:45:47;5.30;99.90
4556;DHT22;2290;48.674;9.018;2023-12-20T14:48:14;5.30;99.90
4556;DHT22;2290;48.674;9.018;2023-12-20T14:50:39;5.40;99.90
4556;DHT22;2290;48.674;9.018;2023-12-20T14:53:15;5.20;99.90
4556;DHT22;2290;48.674;9.018;2023-12-20T14:55:42;5.20;99.90
4556;DHT22;2290;48.674;9.018;2023-12-20T14:58:08;5.10;99.90
4556;DHT22;2290;48.674;9.018;2023-12-20T15:00:33;5.10;99.90
4556;DHT22;2290;48.674;9.018;2023-12-20T15:03:00;5.20;99.90
4556;DHT22;2290;48.674;9.018;2023-12-20T15:05:27;5.20;99.90
4556;DHT22;2290;48.674;9.018;2023-12-20T15:07:53;5.30;99.90
4556;DHT22;2290;48.674;9.018;2023-12-20T15:10:19;5.20;99.90
4556;DHT22;2290;48.674;9.018;2023-12-20T15:12:45;5.20;99.90
4556;DHT22;2290;48.674;9.018;2023-12-20T15:15:15;5.20;99.90
4556;DHT22;2290;48.674;9.018;2023-12-20T15:17:42;5.10;99.90
4556;DHT22;2290;48.674;9.018;2023-12-20T15:20:09;5.10;99.90
4556;DHT22;2290;48.674;9.018;2023-12-20T15:22:39;5.20;99.90
4556;DHT22;2290;48.674;9.018;2023-12-20T15:25:06;5.10;99.90
4556;DHT22;2290;48.674;9.018;2023-12-20T15:27:35;5.10;99.90
4556;DHT22;2290;48.674;9.018;2023-12-20T15:30:05;5.10;99.90
4556;DHT22;2290;48.674;9.018;2023-12-20T15:32:32;5.00;99.90
4556;DHT22;2290;48.674;9.018;2023-12-20T15:34:58;4.90;99.90
4556;DHT22;2290;48.674;9.018;2023-12-20T15:37:23;4.90;99.90
4556;DHT22;2290;48.674;9.018;2023-12-20T15:39:51;4.90;99.90
4556;DHT22;2290;48.674;9.018;2023-12-20T15:42:17;4.80;99.90
4556;DHT22;2290;48.674;9.018;2023-12-20T15:44:42;4.80;99.90
4556;DHT22;2290;48.674;9.018;2023-12-20T15:47:08;4.80;99.90
4556;DHT22;2290;48.674;9.018;2023-12-20T15:49:33;4.80;99.90
4556;DHT22;2290;48.674;9.018;2023-12-20T15:51:59;4.80;99.90
4556;DHT22;2290;48.674;9.018;2023-12-20T15:54:25;4.80;99.90
4556;DHT22;2290;48.674;9.018;2023-12-20T15:56:50;4.80;99.90
4556;DHT22;2290;48.674;9.018;2023-12-20T15:59:17;4.90;99.90
4556;DHT22;2290;48.674;9.018;2023-12-20T16:01:43;4.90;99.90
4556;DHT22;2290;48.674;9.018;2023-12-20T16:04:09;4.90;99.90
4556;DHT22;2290;48.674;9.018;2023-12-20T16:06:35;4.90;99.90
4556;DHT22;2290;48.674;9.018;2023-12-20T16:09:01;5.00;99.90
4556;DHT22;2290;48.674;9.018;2023-12-20T16:11:28;5.10;99.90
4556;DHT22;2290;48.674;9.018;2023-12-20T16:13:54;5.10;99.90
4556;DHT22;2290;48.674;9.018;2023-12-20T16:16:24;5.20;99.90
4556;DHT22;2290;48.674;9.018;2023-12-20T16:18:56;5.10;99.90